sensor_id;sensor_type;location;lat;lon;timestamp;pressure;altitude;pressure_sealevel;temperature;humidity
46846;BME280;33947;46.804;134.252;2023-01-28T00:01:31;100851.00;;;-30.78;48.85
46846;BME280;33947;46.804;134.252;2023-01-28T00:04:36;100828.19;;;-30.08;50.87
46846;BME280;33947;46.804;134.252;2023-01-28T00:07:41;100804.44;;;-29.56;51.28
46846;BME280;33947;46.804;134.252;2023-01-28T00:10:49;100811.44;;;-29.09;50.63
46846;BME280;33947;46.804;134.252;2023-01-28T00:13:54;100833.03;;;-28.83;49.67
46846;BME280;33947;46.804;134.252;2023-01-28T00:17:04;100836.03;;;-28.21;51.30
46846;BME280;33947;46.804;134.252;2023-01-28T00:20:11;100822.09;;;-27.93;50.15
46846;BME280;33947;46.804;134.252;2023-01-28T00:23:16;100816.00;;;-27.49;50.81
46846;BME280;33947;46.804;134.252;2023-01-28T00:26:22;100834.44;;;-27.21;50.35
46846;BME280;33947;46.804;134.252;2023-01-28T00:29:28;100838.63;;;-26.67;50.67
46846;BME280;33947;46.804;134.252;2023-01-28T00:32:32;100821.25;;;-26.45;48.38
46846;BME280;33947;46.804;134.252;2023-01-28T00:35:54;100830.91;;;-25.65;49.49
46846;BME280;33947;46.804;134.252;2023-01-28T00:39:13;100825.00;;;-25.65;47.49
46846;BME280;33947;46.804;134.252;2023-01-28T00:42:21;100782.63;;;-25.42;47.79
46846;BME280;33947;46.804;134.252;2023-01-28T00:45:30;100802.19;;;-24.81;48.09
46846;BME280;33947;46.804;134.252;2023-01-28T00:48:40;100757.03;;;-24.74;47.13
46846;BME280;33947;46.804;134.252;2023-01-28T00:51:47;100784.00;;;-23.52;47.94
46846;BME280;33947;46.804;134.252;2023-01-28T00:54:51;100822.47;;;-23.07;47.39
46846;BME280;33947;46.804;134.252;2023-01-28T00:57:57;100830.09;;;-22.91;44.76
46846;BME280;33947;46.804;134.252;2023-01-28T01:04:19;100821.72;;;-21.88;44.36
46846;BME280;33947;46.804;134.252;2023-01-28T01:07:31;100666.47;;;-22.67;44.08
46846;BME280;33947;46.804;134.252;2023-01-28T01:10:38;100810.47;;;-21.26;44.38
46846;BME280;33947;46.804;134.252;2023-01-28T01:13:43;100789.81;;;-21.05;42.54
46846;BME280;33947;46.804;134.252;2023-01-28T01:16:49;100785.75;;;-21.12;42.27
46846;BME280;33947;46.804;134.252;2023-01-28T01:19:55;100795.78;;;-19.85;43.64
46846;BME280;33947;46.804;134.252;2023-01-28T01:23:11;100792.94;;;-19.53;40.20
46846;BME280;33947;46.804;134.252;2023-01-28T01:26:15;100794.78;;;-18.52;40.09
46846;BME280;33947;46.804;134.252;2023-01-28T01:29:20;100806.16;;;-18.66;37.54
46846;BME280;33947;46.804;134.252;2023-01-28T01:32:31;100764.53;;;-19.41;38.73
46846;BME280;33947;46.804;134.252;2023-01-28T01:35:41;100797.69;;;-19.12;38.86
46846;BME280;33947;46.804;134.252;2023-01-28T01:38:55;100740.38;;;-17.70;39.39
46846;BME280;33947;46.804;134.252;2023-01-28T01:42:03;100797.69;;;-15.93;36.75
46846;BME280;33947;46.804;134.252;2023-01-28T01:45:14;100774.91;;;-16.02;34.98
46846;BME280;33947;46.804;134.252;2023-01-28T01:48:31;100730.03;;;-17.04;35.22
46846;BME280;33947;46.804;134.252;2023-01-28T01:51:40;100768.25;;;-16.41;35.99
46846;BME280;33947;46.804;134.252;2023-01-28T01:54:48;100713.56;;;-15.95;34.29
46846;BME280;33947;46.804;134.252;2023-01-28T01:57:55;100789.53;;;-15.89;35.27
46846;BME280;33947;46.804;134.252;2023-01-28T02:01:02;100769.81;;;-14.73;34.11
46846;BME280;33947;46.804;134.252;2023-01-28T02:04:30;100709.91;;;-17.11;33.35
46846;BME280;33947;46.804;134.252;2023-01-28T02:07:36;100768.03;;;-17.24;34.68
46846;BME280;33947;46.804;134.252;2023-01-28T02:10:40;100758.00;;;-16.83;35.25
46846;BME280;33947;46.804;134.252;2023-01-28T02:13:49;100734.75;;;-17.76;34.22
46846;BME280;33947;46.804;134.252;2023-01-28T02:17:02;100713.97;;;-18.49;35.51
46846;BME280;33947;46.804;134.252;2023-01-28T02:20:13;100749.09;;;-16.78;37.79
46846;BME280;33947;46.804;134.252;2023-01-28T02:24:06;100746.41;;;-16.90;34.54
46846;BME280;33947;46.804;134.252;2023-01-28T02:30:57;100698.31;;;-17.57;36.69
46846;BME280;33947;46.804;134.252;2023-01-28T02:37:28;100747.53;;;-17.07;36.20
46846;BME280;33947;46.804;134.252;2023-01-28T02:40:43;100731.81;;;-17.32;36.15
46846;BME280;33947;46.804;134.252;2023-01-28T02:44:08;100712.16;;;-17.24;36.38
46846;BME280;33947;46.804;134.252;2023-01-28T02:47:13;100739.59;;;-16.80;36.19
46846;BME280;33947;46.804;134.252;2023-01-28T02:51:52;100681.53;;;-17.85;34.99
46846;BME280;33947;46.804;134.252;2023-01-28T02:54:25;100728.19;;;-19.33;36.63
46846;BME280;33947;46.804;134.252;2023-01-28T03:07:13;100692.69;;;-18.87;38.38
46846;BME280;33947;46.804;134.252;2023-01-28T03:10:20;100696.66;;;-19.45;38.58
46846;BME280;33947;46.804;134.252;2023-01-28T03:13:26;100651.66;;;-19.30;37.82
46846;BME280;33947;46.804;134.252;2023-01-28T03:16:56;100680.34;;;-19.84;38.28
46846;BME280;33947;46.804;134.252;2023-01-28T03:20:26;100644.22;;;-19.92;38.74
46846;BME280;33947;46.804;134.252;2023-01-28T03:24:05;100612.16;;;-20.02;38.79
46846;BME280;33947;46.804;134.252;2023-01-28T03:27:51;100693.69;;;-19.04;38.88
46846;BME280;33947;46.804;134.252;2023-01-28T03:31:19;100682.81;;;-19.03;38.67
46846;BME280;33947;46.804;134.252;2023-01-28T03:34:51;100678.13;;;-19.18;37.61
46846;BME280;33947;46.804;134.252;2023-01-28T03:38:18;100666.53;;;-18.97;38.17
46846;BME280;33947;46.804;134.252;2023-01-28T03:41:26;100672.25;;;-19.54;37.59
46846;BME280;33947;46.804;134.252;2023-01-28T03:44:34;100657.16;;;-19.34;38.79
46846;BME280;33947;46.804;134.252;2023-01-28T03:47:55;100638.97;;;-19.67;38.78
46846;BME280;33947;46.804;134.252;2023-01-28T03:51:00;100666.03;;;-19.66;39.22
46846;BME280;33947;46.804;134.252;2023-01-28T03:54:04;100640.16;;;-19.27;39.46
46846;BME280;33947;46.804;134.252;2023-01-28T03:57:09;100667.59;;;-19.31;38.67
46846;BME280;33947;46.804;134.252;2023-01-28T04:00:13;100664.06;;;-18.86;39.15
46846;BME280;33947;46.804;134.252;2023-01-28T04:03:21;100629.75;;;-18.74;37.97
46846;BME280;33947;46.804;134.252;2023-01-28T04:06:40;100623.38;;;-19.35;37.58
46846;BME280;33947;46.804;134.252;2023-01-28T04:10:13;100613.47;;;-19.51;39.17
46846;BME280;33947;46.804;134.252;2023-01-28T04:13:25;100638.50;;;-19.72;38.48
46846;BME280;33947;46.804;134.252;2023-01-28T04:16:30;100627.75;;;-19.52;38.27
46846;BME280;33947;46.804;134.252;2023-01-28T04:19:34;100614.44;;;-19.31;39.59
46846;BME280;33947;46.804;134.252;2023-01-28T04:22:41;100597.84;;;-19.19;38.88
46846;BME280;33947;46.804;134.252;2023-01-28T04:25:49;100577.50;;;-19.01;37.92
46846;BME280;33947;46.804;134.252;2023-01-28T04:28:56;100607.94;;;-19.10;38.31
46846;BME280;33947;46.804;134.252;2023-01-28T04:32:00;100612.81;;;-19.40;37.74
46846;BME280;33947;46.804;134.252;2023-01-28T04:35:28;100625.88;;;-18.98;38.15
46846;BME280;33947;46.804;134.252;2023-01-28T04:38:45;100588.47;;;-19.57;39.08
46846;BME280;33947;46.804;134.252;2023-01-28T04:42:25;100582.44;;;-19.76;39.25
46846;BME280;33947;46.804;134.252;2023-01-28T04:45:37;100478.41;;;-20.35;38.62
46846;BME280;33947;46.804;134.252;2023-01-28T04:49:00;100609.31;;;-19.23;38.47
46846;BME280;33947;46.804;134.252;2023-01-28T04:52:37;100608.94;;;-19.36;39.09
46846;BME280;33947;46.804;134.252;2023-01-28T04:56:07;100563.97;;;-19.67;38.78
46846;BME280;33947;46.804;134.252;2023-01-28T04:59:14;100572.06;;;-19.43;38.41
46846;BME280;33947;46.804;134.252;2023-01-28T05:02:18;100594.19;;;-19.31;37.90
46846;BME280;33947;46.804;134.252;2023-01-28T05:05:22;100627.00;;;-19.14;38.31
46846;BME280;33947;46.804;134.252;2023-01-28T05:08:38;100623.31;;;-19.54;39.40
46846;BME280;33947;46.804;134.252;2023-01-28T05:11:42;100601.34;;;-19.36;37.71
46846;BME280;33947;46.804;134.252;2023-01-28T05:14:47;100621.03;;;-18.86;37.84
46846;BME280;33947;46.804;134.252;2023-01-28T05:17:55;100598.59;;;-19.57;38.55
46846;BME280;33947;46.804;134.252;2023-01-28T05:21:01;100645.03;;;-19.19;38.29
46846;BME280;33947;46.804;134.252;2023-01-28T05:24:10;100616.22;;;-19.30;38.11
46846;BME280;33947;46.804;134.252;2023-01-28T05:27:14;100649.06;;;-19.67;37.59
46846;BME280;33947;46.804;134.252;2023-01-28T05:30:21;100612.91;;;-19.57;38.26
46846;BME280;33947;46.804;134.252;2023-01-28T05:33:28;100635.22;;;-19.71;37.54
46846;BME280;33947;46.804;134.252;2023-01-28T05:36:32;100622.75;;;-19.32;39.25
46846;BME280;33947;46.804;134.252;2023-01-28T05:39:44;100616.09;;;-19.41;37.88
46846;BME280;33947;46.804;134.252;2023-01-28T05:42:48;100638.38;;;-19.73;38.01
46846;BME280;33947;46.804;134.252;2023-01-28T05:46:08;100638.22;;;-19.66;37.86
46846;BME280;33947;46.804;134.252;2023-01-28T05:49:30;100642.44;;;-19.93;39.07
46846;BME280;33947;46.804;134.252;2023-01-28T05:52:54;100668.22;;;-19.52;38.90
46846;BME280;33947;46.804;134.252;2023-01-28T05:56:05;100663.63;;;-19.56;37.25
46846;BME280;33947;46.804;134.252;2023-01-28T05:59:11;100647.47;;;-19.75;38.48
46846;BME280;33947;46.804;134.252;2023-01-28T06:02:19;100630.25;;;-19.97;37.97
46846;BME280;33947;46.804;134.252;2023-01-28T06:05:27;100661.22;;;-20.00;38.99
46846;BME280;33947;46.804;134.252;2023-01-28T06:08:32;100683.69;;;-19.40;38.26
46846;BME280;33947;46.804;134.252;2023-01-28T06:11:36;100675.13;;;-19.68;37.74
46846;BME280;33947;46.804;134.252;2023-01-28T06:14:41;100650.03;;;-19.93;37.83
46846;BME280;33947;46.804;134.252;2023-01-28T06:18:06;100680.22;;;-20.39;38.59
46846;BME280;33947;46.804;134.252;2023-01-28T06:21:11;100698.03;;;-19.84;39.26
46846;BME280;33947;46.804;134.252;2023-01-28T06:24:15;100685.28;;;-20.03;38.19
46846;BME280;33947;46.804;134.252;2023-01-28T06:27:20;100603.41;;;-20.23;37.42
46846;BME280;33947;46.804;134.252;2023-01-28T06:30:24;100674.53;;;-19.83;37.88
46846;BME280;33947;46.804;134.252;2023-01-28T06:33:29;100643.66;;;-20.51;38.72
46846;BME280;33947;46.804;134.252;2023-01-28T06:36:34;100680.56;;;-20.18;38.81
46846;BME280;33947;46.804;134.252;2023-01-28T06:39:40;100701.34;;;-20.38;37.97
46846;BME280;33947;46.804;134.252;2023-01-28T06:42:45;100616.31;;;-20.46;39.14
46846;BME280;33947;46.804;134.252;2023-01-28T06:45:49;100676.66;;;-20.05;38.25
46846;BME280;33947;46.804;134.252;2023-01-28T06:48:54;100714.00;;;-19.94;38.17
46846;BME280;33947;46.804;134.252;2023-01-28T06:51:58;100709.66;;;-19.77;39.34
46846;BME280;33947;46.804;134.252;2023-01-28T06:55:03;100715.63;;;-20.12;37.92
46846;BME280;33947;46.804;134.252;2023-01-28T06:58:08;100727.25;;;-20.65;38.55
46846;BME280;33947;46.804;134.252;2023-01-28T07:01:12;100733.03;;;-20.84;38.66
46846;BME280;33947;46.804;134.252;2023-01-28T07:04:16;100725.94;;;-20.62;38.72
46846;BME280;33947;46.804;134.252;2023-01-28T07:07:21;100701.28;;;-20.73;38.94
46846;BME280;33947;46.804;134.252;2023-01-28T07:10:33;100710.22;;;-20.59;39.08
46846;BME280;33947;46.804;134.252;2023-01-28T07:13:37;100718.84;;;-20.48;39.60
46846;BME280;33947;46.804;134.252;2023-01-28T07:16:42;100707.22;;;-20.64;38.42
46846;BME280;33947;46.804;134.252;2023-01-28T07:19:46;100727.78;;;-21.03;38.40
46846;BME280;33947;46.804;134.252;2023-01-28T07:22:54;100723.47;;;-21.04;39.19
46846;BME280;33947;46.804;134.252;2023-01-28T07:26:03;100754.59;;;-20.70;39.03
46846;BME280;33947;46.804;134.252;2023-01-28T07:29:08;100723.38;;;-21.22;38.45
46846;BME280;33947;46.804;134.252;2023-01-28T07:32:12;100726.53;;;-21.16;38.70
46846;BME280;33947;46.804;134.252;2023-01-28T07:35:17;100714.78;;;-21.49;39.75
46846;BME280;33947;46.804;134.252;2023-01-28T07:38:21;100744.41;;;-21.55;39.23
46846;BME280;33947;46.804;134.252;2023-01-28T07:41:25;100754.22;;;-21.49;39.60
46846;BME280;33947;46.804;134.252;2023-01-28T07:44:38;100749.88;;;-21.84;39.93
46846;BME280;33947;46.804;134.252;2023-01-28T07:47:42;100772.13;;;-21.64;39.89
46846;BME280;33947;46.804;134.252;2023-01-28T07:50:47;100748.81;;;-22.02;39.59
46846;BME280;33947;46.804;134.252;2023-01-28T07:53:56;100740.53;;;-22.33;40.07
46846;BME280;33947;46.804;134.252;2023-01-28T07:57:07;100765.94;;;-22.39;40.32
46846;BME280;33947;46.804;134.252;2023-01-28T08:00:15;100758.00;;;-22.67;41.09
46846;BME280;33947;46.804;134.252;2023-01-28T08:03:21;100756.09;;;-22.77;40.95
46846;BME280;33947;46.804;134.252;2023-01-28T08:06:27;100789.38;;;-22.79;41.05
46846;BME280;33947;46.804;134.252;2023-01-28T08:09:31;100790.91;;;-22.49;41.80
46846;BME280;33947;46.804;134.252;2023-01-28T08:12:37;100785.28;;;-22.63;41.25
46846;BME280;33947;46.804;134.252;2023-01-28T08:15:41;100801.41;;;-22.77;41.03
46846;BME280;33947;46.804;134.252;2023-01-28T08:18:46;100802.19;;;-23.08;41.28
46846;BME280;33947;46.804;134.252;2023-01-28T08:21:50;100810.84;;;-23.13;41.17
46846;BME280;33947;46.804;134.252;2023-01-28T08:24:56;100765.16;;;-23.56;41.05
46846;BME280;33947;46.804;134.252;2023-01-28T08:28:01;100807.06;;;-23.33;41.45
46846;BME280;33947;46.804;134.252;2023-01-28T08:31:06;100725.84;;;-23.86;41.22
46846;BME280;33947;46.804;134.252;2023-01-28T08:34:11;100825.53;;;-23.25;41.56
46846;BME280;33947;46.804;134.252;2023-01-28T08:37:15;100788.75;;;-23.70;41.76
46846;BME280;33947;46.804;134.252;2023-01-28T08:40:20;100803.81;;;-23.70;41.92
46846;BME280;33947;46.804;134.252;2023-01-28T08:43:24;100851.94;;;-23.67;41.95
46846;BME280;33947;46.804;134.252;2023-01-28T08:46:29;100854.84;;;-23.85;42.51
46846;BME280;33947;46.804;134.252;2023-01-28T08:49:34;100821.78;;;-24.12;42.47
46846;BME280;33947;46.804;134.252;2023-01-28T08:52:38;100852.41;;;-24.07;42.79
46846;BME280;33947;46.804;134.252;2023-01-28T08:55:46;100851.19;;;-24.25;42.74
46846;BME280;33947;46.804;134.252;2023-01-28T08:58:51;100851.78;;;-24.35;42.71
46846;BME280;33947;46.804;134.252;2023-01-28T09:01:56;100834.78;;;-24.81;43.13
46846;BME280;33947;46.804;134.252;2023-01-28T09:05:00;100830.47;;;-24.53;43.35
46846;BME280;33947;46.804;134.252;2023-01-28T09:08:10;100881.44;;;-23.95;42.41
46846;BME280;33947;46.804;134.252;2023-01-28T09:11:17;100865.38;;;-24.19;42.42
46846;BME280;33947;46.804;134.252;2023-01-28T09:14:22;100889.59;;;-24.12;42.12
46846;BME280;33947;46.804;134.252;2023-01-28T09:17:26;100845.53;;;-24.89;42.90
46846;BME280;33947;46.804;134.252;2023-01-28T09:20:34;100872.22;;;-24.90;42.83
46846;BME280;33947;46.804;134.252;2023-01-28T09:23:38;100892.31;;;-24.75;42.69
46846;BME280;33947;46.804;134.252;2023-01-28T09:26:44;100876.63;;;-25.31;42.94
46846;BME280;33947;46.804;134.252;2023-01-28T09:29:48;100882.50;;;-25.52;43.21
46846;BME280;33947;46.804;134.252;2023-01-28T09:32:53;100893.56;;;-25.57;44.32
46846;BME280;33947;46.804;134.252;2023-01-28T09:36:03;100896.06;;;-25.57;44.31
46846;BME280;33947;46.804;134.252;2023-01-28T09:39:08;100823.44;;;-25.99;44.34
46846;BME280;33947;46.804;134.252;2023-01-28T09:45:41;100839.09;;;-25.80;43.71
46846;BME280;33947;46.804;134.252;2023-01-28T09:48:50;100855.84;;;-26.56;44.13
46846;BME280;33947;46.804;134.252;2023-01-28T09:51:56;100894.22;;;-26.35;44.33
46846;BME280;33947;46.804;134.252;2023-01-28T09:55:18;100889.91;;;-26.09;43.71
46846;BME280;33947;46.804;134.252;2023-01-28T09:58:25;100870.16;;;-26.55;44.19
46846;BME280;33947;46.804;134.252;2023-01-28T10:01:42;100805.03;;;-26.69;44.62
46846;BME280;33947;46.804;134.252;2023-01-28T10:04:58;100915.53;;;-26.52;45.08
46846;BME280;33947;46.804;134.252;2023-01-28T10:18:32;100923.84;;;-26.86;46.43
46846;BME280;33947;46.804;134.252;2023-01-28T10:21:42;100740.91;;;-27.84;45.95
46846;BME280;33947;46.804;134.252;2023-01-28T10:25:02;100926.91;;;-26.81;45.45
46846;BME280;33947;46.804;134.252;2023-01-28T10:28:25;100888.88;;;-26.78;44.72
46846;BME280;33947;46.804;134.252;2023-01-28T10:31:34;100893.66;;;-27.07;44.43
46846;BME280;33947;46.804;134.252;2023-01-28T10:34:42;100935.56;;;-26.72;45.28
46846;BME280;33947;46.804;134.252;2023-01-28T10:37:46;100942.16;;;-26.52;45.45
46846;BME280;33947;46.804;134.252;2023-01-28T10:40:51;100915.66;;;-26.57;44.28
46846;BME280;33947;46.804;134.252;2023-01-28T10:43:55;100947.25;;;-26.85;44.46
46846;BME280;33947;46.804;134.252;2023-01-28T10:47:14;100914.81;;;-27.31;44.76
46846;BME280;33947;46.804;134.252;2023-01-28T10:50:23;100956.38;;;-26.99;44.92
46846;BME280;33947;46.804;134.252;2023-01-28T10:53:35;100934.88;;;-27.70;45.75
46846;BME280;33947;46.804;134.252;2023-01-28T10:56:42;100969.72;;;-27.51;45.50
46846;BME280;33947;46.804;134.252;2023-01-28T10:59:47;100987.13;;;-27.59;46.00
46846;BME280;33947;46.804;134.252;2023-01-28T11:06:27;100873.53;;;-28.27;46.33
46846;BME280;33947;46.804;134.252;2023-01-28T11:09:50;100978.47;;;-27.48;46.62
46846;BME280;33947;46.804;134.252;2023-01-28T11:12:59;100990.78;;;-27.62;46.11
46846;BME280;33947;46.804;134.252;2023-01-28T11:16:25;100967.44;;;-27.30;45.46
46846;BME280;33947;46.804;134.252;2023-01-28T11:19:34;100980.75;;;-27.23;44.72
46846;BME280;33947;46.804;134.252;2023-01-28T11:22:41;100992.22;;;-27.18;44.52
46846;BME280;33947;46.804;134.252;2023-01-28T11:25:48;100980.41;;;-27.52;44.42
46846;BME280;33947;46.804;134.252;2023-01-28T11:28:58;100981.03;;;-27.28;44.25
46846;BME280;33947;46.804;134.252;2023-01-28T11:32:16;100954.56;;;-27.79;43.65
46846;BME280;33947;46.804;134.252;2023-01-28T11:35:26;101008.81;;;-28.35;45.05
46846;BME280;33947;46.804;134.252;2023-01-28T11:42:21;100989.56;;;-28.23;44.72
46846;BME280;33947;46.804;134.252;2023-01-28T11:45:42;100944.41;;;-28.51;45.36
46846;BME280;33947;46.804;134.252;2023-01-28T11:52:47;100986.63;;;-28.71;45.15
46846;BME280;33947;46.804;134.252;2023-01-28T12:18:35;100995.50;;;-29.42;45.96
46846;BME280;33947;46.804;134.252;2023-01-28T12:28:43;101013.25;;;-29.33;45.81
46846;BME280;33947;46.804;134.252;2023-01-28T12:35:20;101015.31;;;-29.55;46.95
46846;BME280;33947;46.804;134.252;2023-01-28T12:38:44;101007.16;;;-29.54;47.22
46846;BME280;33947;46.804;134.252;2023-01-28T12:42:08;101014.50;;;-29.42;47.00
46846;BME280;33947;46.804;134.252;2023-01-28T12:45:22;101018.66;;;-29.11;46.39
46846;BME280;33947;46.804;134.252;2023-01-28T12:48:52;101015.97;;;-29.37;45.44
46846;BME280;33947;46.804;134.252;2023-01-28T12:52:35;101028.72;;;-29.60;45.73
46846;BME280;33947;46.804;134.252;2023-01-28T12:55:45;101044.34;;;-29.42;45.39
46846;BME280;33947;46.804;134.252;2023-01-28T13:05:39;101016.69;;;-30.06;46.16
46846;BME280;33947;46.804;134.252;2023-01-28T13:12:10;101024.59;;;-30.38;46.45
46846;BME280;33947;46.804;134.252;2023-01-28T13:15:17;101002.09;;;-29.97;46.16
46846;BME280;33947;46.804;134.252;2023-01-28T13:21:48;101009.63;;;-30.27;45.04
46846;BME280;33947;46.804;134.252;2023-01-28T13:24:53;100940.91;;;-30.56;44.57
46846;BME280;33947;46.804;134.252;2023-01-28T13:28:30;101022.44;;;-30.48;44.26
46846;BME280;33947;46.804;134.252;2023-01-28T13:31:40;100969.22;;;-30.97;45.95
46846;BME280;33947;46.804;134.252;2023-01-28T13:34:56;101003.63;;;-30.76;46.74
46846;BME280;33947;46.804;134.252;2023-01-28T13:38:09;101011.16;;;-30.57;45.95
46846;BME280;33947;46.804;134.252;2023-01-28T13:41:17;101009.13;;;-30.90;45.63
46846;BME280;33947;46.804;134.252;2023-01-28T13:47:32;101009.03;;;-31.20;45.72
46846;BME280;33947;46.804;134.252;2023-01-28T13:50:41;101019.22;;;-31.30;46.20
46846;BME280;33947;46.804;134.252;2023-01-28T13:57:22;101021.47;;;-31.26;46.76
46846;BME280;33947;46.804;134.252;2023-01-28T14:20:44;101009.34;;;-31.41;46.27
46846;BME280;33947;46.804;134.252;2023-01-28T14:23:54;101035.47;;;-31.21;45.59
46846;BME280;33947;46.804;134.252;2023-01-28T14:30:41;101026.34;;;-31.79;47.06
46846;BME280;33947;46.804;134.252;2023-01-28T14:33:47;100974.56;;;-32.17;46.80
46846;BME280;33947;46.804;134.252;2023-01-28T14:37:02;101030.81;;;-31.59;46.91
46846;BME280;33947;46.804;134.252;2023-01-28T14:40:12;101038.03;;;-31.55;46.77
46846;BME280;33947;46.804;134.252;2023-01-28T14:43:22;101028.84;;;-31.84;46.96
46846;BME280;33947;46.804;134.252;2023-01-28T14:46:39;101030.19;;;-31.75;47.00
46846;BME280;33947;46.804;134.252;2023-01-28T14:50:26;101043.50;;;-31.10;46.18
46846;BME280;33947;46.804;134.252;2023-01-28T14:54:00;101043.03;;;-32.12;45.82
46846;BME280;33947;46.804;134.252;2023-01-28T15:00:55;101030.44;;;-31.96;45.98
46846;BME280;33947;46.804;134.252;2023-01-28T15:04:04;101002.50;;;-32.12;45.52
46846;BME280;33947;46.804;134.252;2023-01-28T15:07:23;101046.88;;;-32.14;46.19
46846;BME280;33947;46.804;134.252;2023-01-28T15:10:36;101032.44;;;-31.82;45.64
46846;BME280;33947;46.804;134.252;2023-01-28T15:13:51;101052.72;;;-32.08;45.33
46846;BME280;33947;46.804;134.252;2023-01-28T15:17:02;100998.88;;;-32.26;45.14
46846;BME280;33947;46.804;134.252;2023-01-28T15:23:49;100917.84;;;-32.95;45.98
46846;BME280;33947;46.804;134.252;2023-01-28T15:27:00;101020.22;;;-32.83;45.52
46846;BME280;33947;46.804;134.252;2023-01-28T15:30:28;101035.72;;;-33.07;46.65
46846;BME280;33947;46.804;134.252;2023-01-28T15:33:53;101018.88;;;-32.92;47.23
46846;BME280;33947;46.804;134.252;2023-01-28T15:37:00;101009.03;;;-32.58;47.42
46846;BME280;33947;46.804;134.252;2023-01-28T15:40:05;100987.84;;;-32.68;46.46
46846;BME280;33947;46.804;134.252;2023-01-28T15:43:21;101040.78;;;-32.22;46.24
46846;BME280;33947;46.804;134.252;2023-01-28T15:46:33;101032.00;;;-32.14;45.78
46846;BME280;33947;46.804;134.252;2023-01-28T15:49:44;101043.28;;;-32.33;45.79
46846;BME280;33947;46.804;134.252;2023-01-28T15:52:51;101030.19;;;-32.60;46.23
46846;BME280;33947;46.804;134.252;2023-01-28T15:56:07;100999.53;;;-32.72;45.95
46846;BME280;33947;46.804;134.252;2023-01-28T15:59:18;101026.59;;;-32.28;45.55
46846;BME280;33947;46.804;134.252;2023-01-28T16:02:30;101007.41;;;-32.81;44.89
46846;BME280;33947;46.804;134.252;2023-01-28T16:05:39;101057.59;;;-32.76;44.90
46846;BME280;33947;46.804;134.252;2023-01-28T16:08:59;101078.31;;;-32.87;45.96
46846;BME280;33947;46.804;134.252;2023-01-28T16:12:06;101036.81;;;-33.11;46.01
46846;BME280;33947;46.804;134.252;2023-01-28T16:15:15;101000.78;;;-33.20;46.97
46846;BME280;33947;46.804;134.252;2023-01-28T16:18:36;101043.22;;;-32.73;47.05
46846;BME280;33947;46.804;134.252;2023-01-28T16:21:49;100963.06;;;-32.79;45.91
46846;BME280;33947;46.804;134.252;2023-01-28T16:28:27;101059.50;;;-32.46;46.17
46846;BME280;33947;46.804;134.252;2023-01-28T16:31:35;101070.69;;;-32.65;45.72
46846;BME280;33947;46.804;134.252;2023-01-28T16:34:39;101051.06;;;-33.36;45.53
46846;BME280;33947;46.804;134.252;2023-01-28T16:37:46;101079.19;;;-32.86;45.75
46846;BME280;33947;46.804;134.252;2023-01-28T16:40:51;101073.63;;;-33.23;45.25
46846;BME280;33947;46.804;134.252;2023-01-28T16:43:59;101102.91;;;-33.15;44.95
46846;BME280;33947;46.804;134.252;2023-01-28T16:47:08;101113.00;;;-33.63;45.33
46846;BME280;33947;46.804;134.252;2023-01-28T16:50:20;101125.44;;;-33.79;46.05
46846;BME280;33947;46.804;134.252;2023-01-28T16:53:30;101119.09;;;-33.56;46.38
46846;BME280;33947;46.804;134.252;2023-01-28T16:56:36;101107.66;;;-33.55;46.84
46846;BME280;33947;46.804;134.252;2023-01-28T16:59:48;101121.28;;;-33.25;47.56
46846;BME280;33947;46.804;134.252;2023-01-28T17:02:53;101102.47;;;-33.13;47.46
46846;BME280;33947;46.804;134.252;2023-01-28T17:05:58;101136.19;;;-33.19;46.84
46846;BME280;33947;46.804;134.252;2023-01-28T17:09:05;101125.09;;;-32.94;46.86
46846;BME280;33947;46.804;134.252;2023-01-28T17:12:10;101108.50;;;-32.61;46.14
46846;BME280;33947;46.804;134.252;2023-01-28T17:15:15;101117.66;;;-32.83;45.03
46846;BME280;33947;46.804;134.252;2023-01-28T17:18:20;101126.69;;;-32.77;45.16
46846;BME280;33947;46.804;134.252;2023-01-28T17:21:24;101114.44;;;-33.48;44.66
46846;BME280;33947;46.804;134.252;2023-01-28T17:24:29;101123.25;;;-33.33;45.11
46846;BME280;33947;46.804;134.252;2023-01-28T17:27:34;100974.94;;;-34.10;44.65
46846;BME280;33947;46.804;134.252;2023-01-28T17:30:41;101104.25;;;-33.61;44.61
46846;BME280;33947;46.804;134.252;2023-01-28T17:33:45;101055.41;;;-33.68;45.22
46846;BME280;33947;46.804;134.252;2023-01-28T17:36:50;101113.00;;;-33.19;44.37
46846;BME280;33947;46.804;134.252;2023-01-28T17:39:55;101097.72;;;-33.61;44.34
46846;BME280;33947;46.804;134.252;2023-01-28T17:42:59;101089.88;;;-33.85;44.90
46846;BME280;33947;46.804;134.252;2023-01-28T17:46:12;101121.88;;;-33.75;44.89
46846;BME280;33947;46.804;134.252;2023-01-28T17:49:19;101134.09;;;-34.19;45.15
46846;BME280;33947;46.804;134.252;2023-01-28T17:52:24;101139.22;;;-34.23;45.85
46846;BME280;33947;46.804;134.252;2023-01-28T17:55:29;101089.69;;;-34.14;45.54
46846;BME280;33947;46.804;134.252;2023-01-28T17:58:36;101138.03;;;-33.77;45.60
46846;BME280;33947;46.804;134.252;2023-01-28T18:01:45;101130.09;;;-34.13;45.96
46846;BME280;33947;46.804;134.252;2023-01-28T18:04:51;101121.13;;;-34.13;46.95
46846;BME280;33947;46.804;134.252;2023-01-28T18:07:55;101067.31;;;-34.04;46.97
46846;BME280;33947;46.804;134.252;2023-01-28T18:11:00;101031.75;;;-33.77;46.20